sensor_id;sensor_type;location;lat;lon;timestamp;temperature;humidity
32753;DHT22;19121;52.428;10.816;2022-11-13T00:00:42;18.40;52.60
32753;DHT22;19121;52.428;10.816;2022-11-13T00:03:07;18.40;52.50
32753;DHT22;19121;52.428;10.816;2022-11-13T00:05:33;18.40;52.50
32753;DHT22;19121;52.428;10.816;2022-11-13T00:07:58;18.40;52.50
32753;DHT22;19121;52.428;10.816;2022-11-13T00:10:24;18.40;52.60
32753;DHT22;19121;52.428;10.816;2022-11-13T00:12:49;18.40;52.60
32753;DHT22;19121;52.428;10.816;2022-11-13T00:15:14;18.40;52.60
32753;DHT22;19121;52.428;10.816;2022-11-13T00:17:40;18.40;52.60
32753;DHT22;19121;52.428;10.816;2022-11-13T00:20:05;18.40;52.60
32753;DHT22;19121;52.428;10.816;2022-11-13T00:22:31;18.40;52.60
32753;DHT22;19121;52.428;10.816;2022-11-13T00:24:56;18.30;52.50
32753;DHT22;19121;52.428;10.816;2022-11-13T00:27:22;18.40;52.50
32753;DHT22;19121;52.428;10.816;2022-11-13T00:29:47;18.30;52.50
32753;DHT22;19121;52.428;10.816;2022-11-13T00:32:12;18.30;52.50
32753;DHT22;19121;52.428;10.816;2022-11-13T00:34:38;18.30;52.50
32753;DHT22;19121;52.428;10.816;2022-11-13T00:37:03;18.30;52.50
32753;DHT22;19121;52.428;10.816;2022-11-13T00:39:29;18.30;52.50
32753;DHT22;19121;52.428;10.816;2022-11-13T00:41:54;18.30;52.50
32753;DHT22;19121;52.428;10.816;2022-11-13T00:44:19;18.30;52.50
32753;DHT22;19121;52.428;10.816;2022-11-13T00:46:45;18.30;52.50
32753;DHT22;19121;52.428;10.816;2022-11-13T00:49:10;18.30;52.50
32753;DHT22;19121;52.428;10.816;2022-11-13T00:51:37;18.30;52.50
32753;DHT22;19121;52.428;10.816;2022-11-13T00:54:02;18.30;52.50
32753;DHT22;19121;52.428;10.816;2022-11-13T00:56:28;18.30;52.50
32753;DHT22;19121;52.428;10.816;2022-11-13T00:58:53;18.30;52.60
32753;DHT22;19121;52.428;10.816;2022-11-13T01:01:19;18.30;52.60
32753;DHT22;19121;52.428;10.816;2022-11-13T01:03:44;18.30;52.50
32753;DHT22;19121;52.428;10.816;2022-11-13T01:08:41;18.30;52.50
32753;DHT22;19121;52.428;10.816;2022-11-13T01:11:10;18.30;52.60
32753;DHT22;19121;52.428;10.816;2022-11-13T01:13:37;18.30;52.50
32753;DHT22;19121;52.428;10.816;2022-11-13T01:16:06;18.30;52.50
32753;DHT22;19121;52.428;10.816;2022-11-13T01:18:32;18.30;52.50
32753;DHT22;19121;52.428;10.816;2022-11-13T01:21:04;18.20;52.50
32753;DHT22;19121;52.428;10.816;2022-11-13T01:23:30;18.30;52.60
32753;DHT22;19121;52.428;10.816;2022-11-13T01:26:02;18.20;52.50
32753;DHT22;19121;52.428;10.816;2022-11-13T01:28:28;18.20;52.40
32753;DHT22;19121;52.428;10.816;2022-11-13T01:30:53;18.20;52.40
32753;DHT22;19121;52.428;10.816;2022-11-13T01:33:18;18.20;52.50
32753;DHT22;19121;52.428;10.816;2022-11-13T01:35:44;18.20;52.50
32753;DHT22;19121;52.428;10.816;2022-11-13T01:38:09;18.20;52.50
32753;DHT22;19121;52.428;10.816;2022-11-13T01:40:35;18.20;52.50
32753;DHT22;19121;52.428;10.816;2022-11-13T01:43:10;18.20;52.50
32753;DHT22;19121;52.428;10.816;2022-11-13T01:48:20;18.20;52.50
32753;DHT22;19121;52.428;10.816;2022-11-13T01:50:46;18.20;52.50
32753;DHT22;19121;52.428;10.816;2022-11-13T01:53:11;18.20;52.50
32753;DHT22;19121;52.428;10.816;2022-11-13T01:55:37;18.20;52.40
32753;DHT22;19121;52.428;10.816;2022-11-13T01:58:02;18.20;52.50
32753;DHT22;19121;52.428;10.816;2022-11-13T02:00:30;18.20;52.50
32753;DHT22;19121;52.428;10.816;2022-11-13T02:02:55;18.20;52.50
32753;DHT22;19121;52.428;10.816;2022-11-13T02:05:20;18.20;52.50
32753;DHT22;19121;52.428;10.816;2022-11-13T02:07:46;18.20;52.40
32753;DHT22;19121;52.428;10.816;2022-11-13T02:10:11;18.20;52.50
32753;DHT22;19121;52.428;10.816;2022-11-13T02:12:38;18.20;52.50
32753;DHT22;19121;52.428;10.816;2022-11-13T02:15:05;18.20;52.50
32753;DHT22;19121;52.428;10.816;2022-11-13T02:17:44;18.20;52.50
32753;DHT22;19121;52.428;10.816;2022-11-13T02:20:11;18.20;52.50
32753;DHT22;19121;52.428;10.816;2022-11-13T02:22:37;18.20;52.50
32753;DHT22;19121;52.428;10.816;2022-11-13T02:25:07;18.10;52.40
32753;DHT22;19121;52.428;10.816;2022-11-13T02:27:35;18.10;52.40
32753;DHT22;19121;52.428;10.816;2022-11-13T02:30:21;18.20;52.50
32753;DHT22;19121;52.428;10.816;2022-11-13T02:32:48;18.10;52.40
32753;DHT22;19121;52.428;10.816;2022-11-13T02:35:15;18.10;52.40
32753;DHT22;19121;52.428;10.816;2022-11-13T02:37:41;18.10;52.40
32753;DHT22;19121;52.428;10.816;2022-11-13T02:40:07;18.10;52.40
32753;DHT22;19121;52.428;10.816;2022-11-13T02:42:32;18.10;52.40
32753;DHT22;19121;52.428;10.816;2022-11-13T02:44:57;18.10;52.40
32753;DHT22;19121;52.428;10.816;2022-11-13T02:47:23;18.10;52.40
32753;DHT22;19121;52.428;10.816;2022-11-13T02:49:48;18.10;53.00
32753;DHT22;19121;52.428;10.816;2022-11-13T02:52:14;18.10;52.40
32753;DHT22;19121;52.428;10.816;2022-11-13T02:54:39;18.10;52.40
32753;DHT22;19121;52.428;10.816;2022-11-13T02:57:05;18.10;52.40
32753;DHT22;19121;52.428;10.816;2022-11-13T02:59:30;18.10;52.40
32753;DHT22;19121;52.428;10.816;2022-11-13T03:01:55;18.10;52.40
32753;DHT22;19121;52.428;10.816;2022-11-13T03:04:21;18.10;52.40
32753;DHT22;19121;52.428;10.816;2022-11-13T03:06:46;18.10;52.40
32753;DHT22;19121;52.428;10.816;2022-11-13T03:09:12;18.10;52.30
32753;DHT22;19121;52.428;10.816;2022-11-13T03:11:37;18.10;52.40
32753;DHT22;19121;52.428;10.816;2022-11-13T03:14:03;18.10;52.40
32753;DHT22;19121;52.428;10.816;2022-11-13T03:16:28;18.10;52.40
32753;DHT22;19121;52.428;10.816;2022-11-13T03:18:54;18.10;52.40
32753;DHT22;19121;52.428;10.816;2022-11-13T03:21:19;18.10;52.40
32753;DHT22;19121;52.428;10.816;2022-11-13T03:23:45;18.10;52.40
32753;DHT22;19121;52.428;10.816;2022-11-13T03:26:11;18.10;52.30
32753;DHT22;19121;52.428;10.816;2022-11-13T03:28:37;18.10;52.30
32753;DHT22;19121;52.428;10.816;2022-11-13T03:31:03;18.10;52.30
32753;DHT22;19121;52.428;10.816;2022-11-13T03:33:28;18.10;52.30
32753;DHT22;19121;52.428;10.816;2022-11-13T03:35:54;18.10;52.30
32753;DHT22;19121;52.428;10.816;2022-11-13T03:38:19;18.10;52.20
32753;DHT22;19121;52.428;10.816;2022-11-13T03:40:45;18.10;52.20
32753;DHT22;19121;52.428;10.816;2022-11-13T03:43:10;18.10;52.20
32753;DHT22;19121;52.428;10.816;2022-11-13T03:45:36;18.10;52.20
32753;DHT22;19121;52.428;10.816;2022-11-13T03:48:01;18.10;52.20
32753;DHT22;19121;52.428;10.816;2022-11-13T03:50:26;18.10;52.20
32753;DHT22;19121;52.428;10.816;2022-11-13T03:52:52;18.10;52.10
32753;DHT22;19121;52.428;10.816;2022-11-13T03:55:17;18.10;52.20
32753;DHT22;19121;52.428;10.816;2022-11-13T03:57:43;18.10;52.10
32753;DHT22;19121;52.428;10.816;2022-11-13T04:00:08;18.10;52.20
32753;DHT22;19121;52.428;10.816;2022-11-13T04:02:34;18.10;52.10
32753;DHT22;19121;52.428;10.816;2022-11-13T04:04:59;18.10;52.20
32753;DHT22;19121;52.428;10.816;2022-11-13T04:07:25;18.10;52.10
32753;DHT22;19121;52.428;10.816;2022-11-13T04:09:50;18.10;52.10
32753;DHT22;19121;52.428;10.816;2022-11-13T04:12:15;18.10;52.10
32753;DHT22;19121;52.428;10.816;2022-11-13T04:14:41;18.10;52.20
32753;DHT22;19121;52.428;10.816;2022-11-13T04:17:06;18.10;52.10
32753;DHT22;19121;52.428;10.816;2022-11-13T04:19:31;18.10;52.10
32753;DHT22;19121;52.428;10.816;2022-11-13T04:21:57;18.10;52.10
32753;DHT22;19121;52.428;10.816;2022-11-13T04:24:22;18.10;52.10
32753;DHT22;19121;52.428;10.816;2022-11-13T04:26:48;18.10;52.10
32753;DHT22;19121;52.428;10.816;2022-11-13T04:29:13;18.10;52.20
32753;DHT22;19121;52.428;10.816;2022-11-13T04:31:38;18.10;52.20
32753;DHT22;19121;52.428;10.816;2022-11-13T04:34:04;18.10;52.20
32753;DHT22;19121;52.428;10.816;2022-11-13T04:36:29;18.10;52.20
32753;DHT22;19121;52.428;10.816;2022-11-13T04:38:55;18.10;52.20
32753;DHT22;19121;52.428;10.816;2022-11-13T04:41:20;18.00;52.20
32753;DHT22;19121;52.428;10.816;2022-11-13T04:44:04;18.10;52.20
32753;DHT22;19121;52.428;10.816;2022-11-13T04:46:30;18.10;52.20
32753;DHT22;19121;52.428;10.816;2022-11-13T04:48:55;18.10;52.20
32753;DHT22;19121;52.428;10.816;2022-11-13T04:51:20;18.10;52.80
32753;DHT22;19121;52.428;10.816;2022-11-13T04:53:46;18.10;52.20
32753;DHT22;19121;52.428;10.816;2022-11-13T04:56:11;18.00;52.20
32753;DHT22;19121;52.428;10.816;2022-11-13T04:58:37;18.10;52.20
32753;DHT22;19121;52.428;10.816;2022-11-13T05:01:02;18.10;52.20
32753;DHT22;19121;52.428;10.816;2022-11-13T05:03:28;18.00;52.10
32753;DHT22;19121;52.428;10.816;2022-11-13T05:06:00;18.00;52.10
32753;DHT22;19121;52.428;10.816;2022-11-13T05:08:25;18.00;52.10
32753;DHT22;19121;52.428;10.816;2022-11-13T05:10:51;18.00;52.10
32753;DHT22;19121;52.428;10.816;2022-11-13T05:13:16;18.00;52.10
32753;DHT22;19121;52.428;10.816;2022-11-13T05:15:42;18.00;52.10
32753;DHT22;19121;52.428;10.816;2022-11-13T05:18:07;18.10;52.10
32753;DHT22;19121;52.428;10.816;2022-11-13T05:20:32;18.00;52.10
32753;DHT22;19121;52.428;10.816;2022-11-13T05:22:58;18.00;52.10
32753;DHT22;19121;52.428;10.816;2022-11-13T05:25:23;18.00;52.10
32753;DHT22;19121;52.428;10.816;2022-11-13T05:27:49;18.00;52.10
32753;DHT22;19121;52.428;10.816;2022-11-13T05:30:14;18.00;52.00
32753;DHT22;19121;52.428;10.816;2022-11-13T05:32:40;18.00;52.00
32753;DHT22;19121;52.428;10.816;2022-11-13T05:35:05;18.00;52.00
32753;DHT22;19121;52.428;10.816;2022-11-13T05:37:31;18.00;52.10
32753;DHT22;19121;52.428;10.816;2022-11-13T05:39:56;18.00;52.10
32753;DHT22;19121;52.428;10.816;2022-11-13T05:42:22;18.00;52.00
32753;DHT22;19121;52.428;10.816;2022-11-13T05:44:47;18.00;52.00
32753;DHT22;19121;52.428;10.816;2022-11-13T05:47:12;18.00;52.10
32753;DHT22;19121;52.428;10.816;2022-11-13T05:49:38;18.00;52.10
32753;DHT22;19121;52.428;10.816;2022-11-13T05:52:03;18.00;52.10
32753;DHT22;19121;52.428;10.816;2022-11-13T05:54:29;18.00;52.00
32753;DHT22;19121;52.428;10.816;2022-11-13T05:56:54;18.00;52.00
32753;DHT22;19121;52.428;10.816;2022-11-13T05:59:19;18.00;52.00
32753;DHT22;19121;52.428;10.816;2022-11-13T06:01:45;18.00;52.10
32753;DHT22;19121;52.428;10.816;2022-11-13T06:04:10;18.00;52.10
32753;DHT22;19121;52.428;10.816;2022-11-13T06:06:36;18.00;52.00
32753;DHT22;19121;52.428;10.816;2022-11-13T06:09:03;18.00;52.00
32753;DHT22;19121;52.428;10.816;2022-11-13T06:11:28;18.00;52.00
32753;DHT22;19121;52.428;10.816;2022-11-13T06:13:54;18.00;51.90
32753;DHT22;19121;52.428;10.816;2022-11-13T06:16:21;18.00;51.90
32753;DHT22;19121;52.428;10.816;2022-11-13T06:18:47;18.00;51.90
32753;DHT22;19121;52.428;10.816;2022-11-13T06:21:14;18.00;51.90
32753;DHT22;19121;52.428;10.816;2022-11-13T06:23:40;18.00;51.90
32753;DHT22;19121;52.428;10.816;2022-11-13T06:26:07;18.00;51.90
32753;DHT22;19121;52.428;10.816;2022-11-13T06:28:33;18.00;51.80
32753;DHT22;19121;52.428;10.816;2022-11-13T06:31:02;18.00;51.80
32753;DHT22;19121;52.428;10.816;2022-11-13T06:33:28;18.00;51.80
32753;DHT22;19121;52.428;10.816;2022-11-13T06:35:53;18.00;51.70
32753;DHT22;19121;52.428;10.816;2022-11-13T06:38:19;18.00;51.80
32753;DHT22;19121;52.428;10.816;2022-11-13T06:40:44;18.00;51.70
32753;DHT22;19121;52.428;10.816;2022-11-13T06:43:09;18.00;51.70
32753;DHT22;19121;52.428;10.816;2022-11-13T06:45:35;18.00;51.60
32753;DHT22;19121;52.428;10.816;2022-11-13T06:48:00;18.00;51.70
32753;DHT22;19121;52.428;10.816;2022-11-13T06:50:26;18.00;51.70
32753;DHT22;19121;52.428;10.816;2022-11-13T06:52:51;18.00;51.60
32753;DHT22;19121;52.428;10.816;2022-11-13T06:55:16;18.00;51.70
32753;DHT22;19121;52.428;10.816;2022-11-13T06:57:42;18.00;51.70
32753;DHT22;19121;52.428;10.816;2022-11-13T07:00:08;18.00;51.70
32753;DHT22;19121;52.428;10.816;2022-11-13T07:02:33;18.00;51.70
32753;DHT22;19121;52.428;10.816;2022-11-13T07:04:58;18.00;51.60
32753;DHT22;19121;52.428;10.816;2022-11-13T07:07:24;18.00;51.70
32753;DHT22;19121;52.428;10.816;2022-11-13T07:09:49;18.00;51.70
32753;DHT22;19121;52.428;10.816;2022-11-13T07:12:15;18.00;51.70
32753;DHT22;19121;52.428;10.816;2022-11-13T07:14:40;18.00;51.70
32753;DHT22;19121;52.428;10.816;2022-11-13T07:17:05;18.00;51.70
32753;DHT22;19121;52.428;10.816;2022-11-13T07:19:31;18.00;51.70
32753;DHT22;19121;52.428;10.816;2022-11-13T07:21:56;18.00;51.70
32753;DHT22;19121;52.428;10.816;2022-11-13T07:24:22;18.00;51.70
32753;DHT22;19121;52.428;10.816;2022-11-13T07:26:47;18.00;51.70
32753;DHT22;19121;52.428;10.816;2022-11-13T07:29:13;18.00;51.70
32753;DHT22;19121;52.428;10.816;2022-11-13T07:31:39;18.00;51.60
32753;DHT22;19121;52.428;10.816;2022-11-13T07:34:05;18.00;51.70
32753;DHT22;19121;52.428;10.816;2022-11-13T07:36:30;18.00;51.70
32753;DHT22;19121;52.428;10.816;2022-11-13T07:38:56;18.00;51.60
32753;DHT22;19121;52.428;10.816;2022-11-13T07:41:21;18.00;51.60
32753;DHT22;19121;52.428;10.816;2022-11-13T07:43:46;18.00;51.60
32753;DHT22;19121;52.428;10.816;2022-11-13T07:46:12;18.00;51.60
32753;DHT22;19121;52.428;10.816;2022-11-13T07:48:37;18.00;51.50
32753;DHT22;19121;52.428;10.816;2022-11-13T07:51:03;18.00;51.60
32753;DHT22;19121;52.428;10.816;2022-11-13T07:53:28;18.00;51.60
32753;DHT22;19121;52.428;10.816;2022-11-13T07:55:54;18.00;51.50
32753;DHT22;19121;52.428;10.816;2022-11-13T07:58:19;18.00;51.60
32753;DHT22;19121;52.428;10.816;2022-11-13T08:00:44;18.00;51.60
32753;DHT22;19121;52.428;10.816;2022-11-13T08:03:11;18.00;51.50
32753;DHT22;19121;52.428;10.816;2022-11-13T08:05:37;18.00;51.50
32753;DHT22;19121;52.428;10.816;2022-11-13T08:08:04;18.00;51.40
32753;DHT22;19121;52.428;10.816;2022-11-13T08:10:29;18.00;51.50
32753;DHT22;19121;52.428;10.816;2022-11-13T08:13:02;18.00;51.40
32753;DHT22;19121;52.428;10.816;2022-11-13T08:15:29;18.00;51.50
32753;DHT22;19121;52.428;10.816;2022-11-13T08:17:55;18.00;51.50
32753;DHT22;19121;52.428;10.816;2022-11-13T08:20:20;18.10;51.50
32753;DHT22;19121;52.428;10.816;2022-11-13T08:22:46;18.00;51.40
32753;DHT22;19121;52.428;10.816;2022-11-13T08:25:11;18.00;51.40
32753;DHT22;19121;52.428;10.816;2022-11-13T08:27:37;18.10;51.40
32753;DHT22;19121;52.428;10.816;2022-11-13T08:30:02;18.10;51.40
32753;DHT22;19121;52.428;10.816;2022-11-13T08:32:28;18.10;51.40
32753;DHT22;19121;52.428;10.816;2022-11-13T08:34:53;18.10;51.40
32753;DHT22;19121;52.428;10.816;2022-11-13T08:37:19;18.10;51.30
32753;DHT22;19121;52.428;10.816;2022-11-13T08:39:44;18.10;51.30
32753;DHT22;19121;52.428;10.816;2022-11-13T08:42:09;18.10;51.40
32753;DHT22;19121;52.428;10.816;2022-11-13T08:44:35;18.10;51.30
32753;DHT22;19121;52.428;10.816;2022-11-13T08:47:00;18.10;51.30
32753;DHT22;19121;52.428;10.816;2022-11-13T08:49:26;18.10;51.30
32753;DHT22;19121;52.428;10.816;2022-11-13T08:51:51;18.10;51.30
32753;DHT22;19121;52.428;10.816;2022-11-13T08:54:16;18.10;51.30
32753;DHT22;19121;52.428;10.816;2022-11-13T08:56:42;18.10;51.30
32753;DHT22;19121;52.428;10.816;2022-11-13T08:59:08;18.20;51.30
32753;DHT22;19121;52.428;10.816;2022-11-13T09:01:33;18.20;51.30
32753;DHT22;19121;52.428;10.816;2022-11-13T09:03:59;18.20;51.30
32753;DHT22;19121;52.428;10.816;2022-11-13T09:06:24;18.20;51.20
32753;DHT22;19121;52.428;10.816;2022-11-13T09:08:50;18.20;51.20
32753;DHT22;19121;52.428;10.816;2022-11-13T09:11:16;18.20;51.20
32753;DHT22;19121;52.428;10.816;2022-11-13T09:13:42;18.20;51.20
32753;DHT22;19121;52.428;10.816;2022-11-13T09:16:07;18.20;51.20
32753;DHT22;19121;52.428;10.816;2022-11-13T09:18:32;18.20;51.10
32753;DHT22;19121;52.428;10.816;2022-11-13T09:21:01;18.20;51.80
32753;DHT22;19121;52.428;10.816;2022-11-13T09:23:27;18.20;51.10
32753;DHT22;19121;52.428;10.816;2022-11-13T09:25:53;18.30;51.20
32753;DHT22;19121;52.428;10.816;2022-11-13T09:28:18;18.20;51.10
32753;DHT22;19121;52.428;10.816;2022-11-13T09:30:44;18.30;51.10
32753;DHT22;19121;52.428;10.816;2022-11-13T09:33:09;18.30;51.10
32753;DHT22;19121;52.428;10.816;2022-11-13T09:35:40;18.30;51.10
32753;DHT22;19121;52.428;10.816;2022-11-13T09:38:06;18.30;51.10
32753;DHT22;19121;52.428;10.816;2022-11-13T09:40:49;18.30;51.10
32753;DHT22;19121;52.428;10.816;2022-11-13T09:43:22;18.30;51.10
32753;DHT22;19121;52.428;10.816;2022-11-13T09:45:50;18.30;51.70
32753;DHT22;19121;52.428;10.816;2022-11-13T09:48:24;18.30;51.10
32753;DHT22;19121;52.428;10.816;2022-11-13T09:50:52;18.30;51.10
32753;DHT22;19121;52.428;10.816;2022-11-13T09:53:18;18.30;51.10
32753;DHT22;19121;52.428;10.816;2022-11-13T09:55:51;18.30;51.10
32753;DHT22;19121;52.428;10.816;2022-11-13T09:58:23;18.30;51.10
32753;DHT22;19121;52.428;10.816;2022-11-13T10:00:50;18.30;51.10
32753;DHT22;19121;52.428;10.816;2022-11-13T10:03:34;18.30;51.10
32753;DHT22;19121;52.428;10.816;2022-11-13T10:06:15;18.30;51.00
32753;DHT22;19121;52.428;10.816;2022-11-13T10:13:35;18.40;51.00
32753;DHT22;19121;52.428;10.816;2022-11-13T10:16:04;18.40;51.00
32753;DHT22;19121;52.428;10.816;2022-11-13T10:18:32;18.40;51.00
32753;DHT22;19121;52.428;10.816;2022-11-13T10:21:08;18.40;51.00
32753;DHT22;19121;52.428;10.816;2022-11-13T10:23:34;18.40;51.00
32753;DHT22;19121;52.428;10.816;2022-11-13T10:26:15;18.40;51.00
32753;DHT22;19121;52.428;10.816;2022-11-13T10:28:41;18.40;51.00
32753;DHT22;19121;52.428;10.816;2022-11-13T10:31:10;18.40;51.00
32753;DHT22;19121;52.428;10.816;2022-11-13T10:33:35;18.40;51.00
32753;DHT22;19121;52.428;10.816;2022-11-13T10:36:03;18.40;51.00
32753;DHT22;19121;52.428;10.816;2022-11-13T10:38:31;18.40;51.00
32753;DHT22;19121;52.428;10.816;2022-11-13T10:41:03;18.40;51.00
32753;DHT22;19121;52.428;10.816;2022-11-13T10:43:28;18.40;51.00
32753;DHT22;19121;52.428;10.816;2022-11-13T10:45:55;18.40;51.00
32753;DHT22;19121;52.428;10.816;2022-11-13T10:48:21;18.40;51.00
32753;DHT22;19121;52.428;10.816;2022-11-13T10:51:01;18.40;51.00
32753;DHT22;19121;52.428;10.816;2022-11-13T10:53:31;18.40;51.00
32753;DHT22;19121;52.428;10.816;2022-11-13T10:55:57;18.40;50.90
32753;DHT22;19121;52.428;10.816;2022-11-13T10:58:23;18.40;51.00
32753;DHT22;19121;52.428;10.816;2022-11-13T11:00:48;18.40;50.90
32753;DHT22;19121;52.428;10.816;2022-11-13T11:03:21;18.40;51.00
32753;DHT22;19121;52.428;10.816;2022-11-13T11:05:51;18.40;51.50
32753;DHT22;19121;52.428;10.816;2022-11-13T11:08:24;18.40;50.90
32753;DHT22;19121;52.428;10.816;2022-11-13T11:10:57;18.40;51.00
32753;DHT22;19121;52.428;10.816;2022-11-13T11:13:41;18.50;51.00
32753;DHT22;19121;52.428;10.816;2022-11-13T11:16:07;18.40;50.90
32753;DHT22;19121;52.428;10.816;2022-11-13T11:21:19;18.40;50.90
32753;DHT22;19121;52.428;10.816;2022-11-13T11:26:14;18.50;50.90
32753;DHT22;19121;52.428;10.816;2022-11-13T11:28:52;18.50;50.90
32753;DHT22;19121;52.428;10.816;2022-11-13T11:31:28;18.50;50.90
32753;DHT22;19121;52.428;10.816;2022-11-13T11:33:58;18.50;50.90
32753;DHT22;19121;52.428;10.816;2022-11-13T11:36:32;18.50;50.90
32753;DHT22;19121;52.428;10.816;2022-11-13T11:39:05;18.50;50.90
32753;DHT22;19121;52.428;10.816;2022-11-13T11:41:35;18.50;50.90
32753;DHT22;19121;52.428;10.816;2022-11-13T11:44:12;18.50;50.90
32753;DHT22;19121;52.428;10.816;2022-11-13T11:46:39;18.50;50.90
32753;DHT22;19121;52.428;10.816;2022-11-13T11:49:07;18.50;50.90
32753;DHT22;19121;52.428;10.816;2022-11-13T11:51:33;18.50;51.00
32753;DHT22;19121;52.428;10.816;2022-11-13T11:54:16;18.50;50.90
32753;DHT22;19121;52.428;10.816;2022-11-13T11:56:49;18.50;50.90
32753;DHT22;19121;52.428;10.816;2022-11-13T11:59:35;18.50;50.90
32753;DHT22;19121;52.428;10.816;2022-11-13T12:07:14;18.50;50.90
32753;DHT22;19121;52.428;10.816;2022-11-13T12:09:42;18.50;50.90
32753;DHT22;19121;52.428;10.816;2022-11-13T12:12:36;18.50;50.90
32753;DHT22;19121;52.428;10.816;2022-11-13T12:17:38;18.50;50.90
32753;DHT22;19121;52.428;10.816;2022-11-13T12:20:18;18.50;51.00
32753;DHT22;19121;52.428;10.816;2022-11-13T12:25:22;18.50;50.90
32753;DHT22;19121;52.428;10.816;2022-11-13T12:35:21;18.50;50.90
32753;DHT22;19121;52.428;10.816;2022-11-13T12:37:53;18.50;51.00
32753;DHT22;19121;52.428;10.816;2022-11-13T12:40:26;18.50;51.00
32753;DHT22;19121;52.428;10.816;2022-11-13T12:43:06;18.50;51.00
32753;DHT22;19121;52.428;10.816;2022-11-13T12:48:07;18.50;51.00
32753;DHT22;19121;52.428;10.816;2022-11-13T12:50:33;18.50;51.00
32753;DHT22;19121;52.428;10.816;2022-11-13T12:55:30;18.50;51.00
32753;DHT22;19121;52.428;10.816;2022-11-13T12:58:05;18.50;51.00
32753;DHT22;19121;52.428;10.816;2022-11-13T13:00:32;18.50;51.20
32753;DHT22;19121;52.428;10.816;2022-11-13T13:05:51;18.50;51.30
32753;DHT22;19121;52.428;10.816;2022-11-13T13:11:10;18.60;51.90
32753;DHT22;19121;52.428;10.816;2022-11-13T13:13:48;18.60;52.50
32753;DHT22;19121;52.428;10.816;2022-11-13T13:16:22;18.60;53.10
32753;DHT22;19121;52.428;10.816;2022-11-13T13:18:48;18.70;53.30
32753;DHT22;19121;52.428;10.816;2022-11-13T13:21:15;18.70;53.50
32753;DHT22;19121;52.428;10.816;2022-11-13T13:23:48;18.70;53.50
32753;DHT22;19121;52.428;10.816;2022-11-13T13:26:16;18.70;53.90
32753;DHT22;19121;52.428;10.816;2022-11-13T13:28:52;18.70;54.10
32753;DHT22;19121;52.428;10.816;2022-11-13T13:31:20;18.70;54.30
32753;DHT22;19121;52.428;10.816;2022-11-13T13:34:34;18.70;54.50
32753;DHT22;19121;52.428;10.816;2022-11-13T13:39:23;18.60;54.60
32753;DHT22;19121;52.428;10.816;2022-11-13T13:41:58;18.70;54.70
32753;DHT22;19121;52.428;10.816;2022-11-13T13:44:47;18.60;54.70
32753;DHT22;19121;52.428;10.816;2022-11-13T13:47:22;18.60;54.70
32753;DHT22;19121;52.428;10.816;2022-11-13T13:49:48;18.60;54.60
32753;DHT22;19121;52.428;10.816;2022-11-13T13:52:14;18.60;54.50
32753;DHT22;19121;52.428;10.816;2022-11-13T13:54:40;18.60;54.50
32753;DHT22;19121;52.428;10.816;2022-11-13T13:57:08;18.60;54.50
32753;DHT22;19121;52.428;10.816;2022-11-13T13:59:35;18.60;54.50
32753;DHT22;19121;52.428;10.816;2022-11-13T14:02:02;18.60;54.30
32753;DHT22;19121;52.428;10.816;2022-11-13T14:04:28;18.60;54.20
32753;DHT22;19121;52.428;10.816;2022-11-13T14:06:57;18.60;54.20
32753;DHT22;19121;52.428;10.816;2022-11-13T14:09:24;18.60;54.20
32753;DHT22;19121;52.428;10.816;2022-11-13T14:12:04;18.70;54.20
32753;DHT22;19121;52.428;10.816;2022-11-13T14:14:30;18.60;54.00
32753;DHT22;19121;52.428;10.816;2022-11-13T14:16:56;18.60;54.00
32753;DHT22;19121;52.428;10.816;2022-11-13T14:19:22;18.60;53.90
32753;DHT22;19121;52.428;10.816;2022-11-13T14:21:49;18.60;53.90
32753;DHT22;19121;52.428;10.816;2022-11-13T14:24:33;18.60;53.80
32753;DHT22;19121;52.428;10.816;2022-11-13T14:27:01;18.60;53.70
32753;DHT22;19121;52.428;10.816;2022-11-13T14:29:36;18.60;53.70
32753;DHT22;19121;52.428;10.816;2022-11-13T14:32:03;18.60;53.60
32753;DHT22;19121;52.428;10.816;2022-11-13T14:34:30;18.60;53.60
32753;DHT22;19121;52.428;10.816;2022-11-13T14:36:55;18.60;53.50
32753;DHT22;19121;52.428;10.816;2022-11-13T14:39:23;18.60;53.40
32753;DHT22;19121;52.428;10.816;2022-11-13T14:41:51;18.60;53.30
32753;DHT22;19121;52.428;10.816;2022-11-13T14:44:27;18.60;53.40
32753;DHT22;19121;52.428;10.816;2022-11-13T14:47:03;18.60;53.30
32753;DHT22;19121;52.428;10.816;2022-11-13T14:49:33;18.60;53.20
32753;DHT22;19121;52.428;10.816;2022-11-13T14:51:59;18.60;53.20
32753;DHT22;19121;52.428;10.816;2022-11-13T14:54:26;18.60;53.20
32753;DHT22;19121;52.428;10.816;2022-11-13T14:56:52;18.70;53.20
32753;DHT22;19121;52.428;10.816;2022-11-13T14:59:24;18.60;53.10
32753;DHT22;19121;52.428;10.816;2022-11-13T15:01:54;18.60;53.00
32753;DHT22;19121;52.428;10.816;2022-11-13T15:04:19;18.60;53.00
32753;DHT22;19121;52.428;10.816;2022-11-13T15:06:45;18.60;53.00
32753;DHT22;19121;52.428;10.816;2022-11-13T15:09:13;18.60;53.00
32753;DHT22;19121;52.428;10.816;2022-11-13T15:11:39;18.60;53.00
32753;DHT22;19121;52.428;10.816;2022-11-13T15:14:12;18.60;53.00
32753;DHT22;19121;52.428;10.816;2022-11-13T15:16:37;18.60;52.90
32753;DHT22;19121;52.428;10.816;2022-11-13T15:19:04;18.60;53.00
32753;DHT22;19121;52.428;10.816;2022-11-13T15:21:31;18.60;52.90
32753;DHT22;19121;52.428;10.816;2022-11-13T15:23:56;18.60;52.90
32753;DHT22;19121;52.428;10.816;2022-11-13T15:26:22;18.60;52.80
32753;DHT22;19121;52.428;10.816;2022-11-13T15:28:48;18.70;52.90
32753;DHT22;19121;52.428;10.816;2022-11-13T15:31:16;18.60;52.80
32753;DHT22;19121;52.428;10.816;2022-11-13T15:33:42;18.60;52.80
32753;DHT22;19121;52.428;10.816;2022-11-13T15:36:08;18.60;52.80
32753;DHT22;19121;52.428;10.816;2022-11-13T15:38:33;18.60;52.80
32753;DHT22;19121;52.428;10.816;2022-11-13T15:40:58;18.60;52.80
32753;DHT22;19121;52.428;10.816;2022-11-13T15:43:24;18.70;52.80
32753;DHT22;19121;52.428;10.816;2022-11-13T15:45:49;18.60;53.40
32753;DHT22;19121;52.428;10.816;2022-11-13T15:48:15;18.60;52.70
32753;DHT22;19121;52.428;10.816;2022-11-13T15:50:40;18.60;53.30
32753;DHT22;19121;52.428;10.816;2022-11-13T15:53:07;18.60;52.70
32753;DHT22;19121;52.428;10.816;2022-11-13T15:55:34;18.60;52.70
32753;DHT22;19121;52.428;10.816;2022-11-13T15:57:59;18.60;52.60
32753;DHT22;19121;52.428;10.816;2022-11-13T16:00:27;18.60;52.60
32753;DHT22;19121;52.428;10.816;2022-11-13T16:02:52;18.60;52.60